Photo de Laille
https://tgftp.nws.noaa.gov/data/observations/metar/stations/LFRN.TXT2020/01/18 16:00 LFRN 181600Z AUTO 06009KT CAVOK 09/04 Q1027 NOSIG
Rennes
Ciel dégagé
Metar : 2020/01/18 16:00 LFRN 181600Z AUTO 06009KT CAVOK 09/04 Q1027 NOSIG
Couverture nuageuse :
Pression de 30.33 inHg (1027 hPa)
Humidité : 71%
Température : 48°F (9°C)
Vent de ENE at 10 mph (17 km/h)
Visibilité : greater than 7 miles (10 km)
Nantes
Ciel dégagé
Metar : 2020/01/18 16:00 LFRS 181600Z AUTO 06009KT CAVOK 09/03 Q1025 NOSIG
Couverture nuageuse :
Traduc : Partly cloudy 700 ft
Pression de 30.27 inHg (1025 hPa)
Humidité : 66%
Température : 48°F (9°C)
Point de rosée : 37°F (3°C)
Vent de ENE at 10 mph (17 km/h)
Visibilité : greater than 7 miles (10 km)
Lannion
nuageux
Metar : 2020/01/18 16:00 LFRO 181600Z AUTO 06005KT 010V120 9999 BKN018 08/05 Q1027
Couverture nuageuse : Mostly Cloudy 1800 ft
Traduc : Partly cloudy 700 ft
Pression de 30.33 inHg (1027 hPa)
Humidité : 82%
Température : 46°F (8°C)
Point de rosée : 41°F (5°C)
Vent de ENE at 6 mph (9 km/h)
Visibilité : 6 miles (10 km)
Dinard
Ciel dégagé
Metar : 2020/01/18 16:00 LFRD 181600Z AUTO 04005KT CAVOK 07/05 Q1028 NOSIG
Couverture nuageuse :
Traduc : Partly cloudy 700 ft
Pression de 30.36 inHg (1028 hPa)
Humidité : 87%
Température : 45°F (7°C)
Point de rosée : 41°F (5°C)
Vent de NE at 6 mph (9 km/h)
Visibilité : greater than 7 miles (10 km)
Brest
Ciel dégagé
Metar : 2020/01/18 16:00 LFRB 181600Z AUTO 06010KT CAVOK 09/04 Q1026 NOSIG
Couverture nuageuse :
Traduc : Partly cloudy 700 ft
Pression de 30.3 inHg (1026 hPa)
Humidité : 71%
Température : 48°F (9°C)
Point de rosée : 39°F (4°C)
Vent de ENE at 12 mph (19 km/h)
Visibilité : greater than 7 miles (10 km)
Quimper
Ciel dégagé
Metar : 2020/01/18 16:00 LFRQ 181600Z AUTO 06007KT CAVOK 07/03 Q1026 NOSIG
Couverture nuageuse :
Traduc : Partly cloudy 700 ft
Pression de 30.3 inHg (1026 hPa)
Humidité : 76%
Température : 45°F (7°C)
Point de rosée : 37°F (3°C)
Vent de ENE at 8 mph (13 km/h)
Visibilité : greater than 7 miles (10 km)
St Nazaire
quelques nuages
Metar : 2020/01/18 16:00 LFRZ 181600Z AUTO 06009KT 9999 FEW032 09/05 Q1025 NOSIG
Couverture nuageuse : Few Clouds 3200 ft
Traduc : Partly cloudy 700 ft
Pression de 30.27 inHg (1025 hPa)
Humidité : 76%
Température : 48°F (9°C)
Point de rosée : 41°F (5°C)
Vent de ENE at 10 mph (17 km/h)
Visibilité : 6 miles (10 km)
St Brieuc
Ciel dégagé
Metar : 2020/01/18 16:00 LFRT 181600Z AUTO 06010KT CAVOK 07/05 Q1027
Couverture nuageuse :
Traduc : Partly cloudy 700 ft
Pression de 30.33 inHg (1027 hPa)
Humidité : 87%
Température : 45°F (7°C)
Point de rosée : 41°F (5°C)
Vent de ENE at 12 mph (19 km/h)
Visibilité : greater than 7 miles (10 km)
Lorient
Ciel dégagé
Metar : 2020/01/18 16:00 LFRH 181600Z AUTO 05010KT CAVOK 08/04 Q1026 NOSIG
Couverture nuageuse :
Traduc : Partly cloudy 700 ft
Pression de 30.3 inHg (1026 hPa)
Humidité : 76%
Température : 46°F (8°C)
Point de rosée : 39°F (4°C)
Vent de NE at 12 mph (19 km/h)
Visibilité : greater than 7 miles (10 km)
Vannes-Meucon
Ciel dégagé
Metar : 2020/01/18 16:00 LFRV 181600Z AUTO 05007KT CAVOK 07/04 Q1025
Couverture nuageuse :
Traduc : Partly cloudy 700 ft
Pression de 30.27 inHg (1025 hPa)
Humidité : 81%
Température : 45°F (7°C)
Point de rosée : 39°F (4°C)
Vent de NE at 8 mph (13 km/h)
Visibilité : greater than 7 miles (10 km)

 


   Weather Underground PWS IBRETAGN39      Weather Underground PWS IBRETAGN39Retour Météo-Laillé adhérent de Météo-Bretagne et d'Infoclimat. Données mises à jour en temps réel via Météolink Climatologie réalisée sous Wswin et GraphWeather.

Affichage prévisions météo de WeatherUnderground via script PHP de Saratoga.

Copyright 2012-2018